sensor_id;sensor_type;location;lat;lon;timestamp;temperature;humidity
1878;DHT22;939;51.426;6.972;2023-07-08T15:35:59;32.50;11.40
1878;DHT22;939;51.426;6.972;2023-07-08T15:38:26;32.60;13.10
1878;DHT22;939;51.426;6.972;2023-07-08T15:40:53;32.50;10.00
1878;DHT22;939;51.426;6.972;2023-07-08T15:43:20;32.40;9.00
1878;DHT22;939;51.426;6.972;2023-07-08T15:45:46;32.40;9.80
1878;DHT22;939;51.426;6.972;2023-07-08T15:48:14;32.30;11.60
1878;DHT22;939;51.426;6.972;2023-07-08T15:50:41;32.20;11.20
1878;DHT22;939;51.426;6.972;2023-07-08T15:53:10;32.10;13.30
1878;DHT22;939;51.426;6.972;2023-07-08T15:55:39;32.00;15.70
1878;DHT22;939;51.426;6.972;2023-07-08T15:58:10;32.00;15.90
1878;DHT22;939;51.426;6.972;2023-07-08T16:00:39;31.90;17.00
1878;DHT22;939;51.426;6.972;2023-07-08T16:03:10;31.80;19.80
1878;DHT22;939;51.426;6.972;2023-07-08T16:05:39;31.80;20.50
1878;DHT22;939;51.426;6.972;2023-07-08T16:08:06;31.70;23.40
1878;DHT22;939;51.426;6.972;2023-07-08T16:10:34;31.60;28.20
1878;DHT22;939;51.426;6.972;2023-07-08T16:13:03;31.60;30.90
1878;DHT22;939;51.426;6.972;2023-07-08T16:15:32;31.50;37.30
1878;DHT22;939;51.426;6.972;2023-07-08T16:18:02;31.40;43.60
1878;DHT22;939;51.426;6.972;2023-07-08T16:25:38;31.00;47.50
1878;DHT22;939;51.426;6.972;2023-07-08T16:28:16;30.90;49.50
1878;DHT22;939;51.426;6.972;2023-07-08T16:33:49;30.80;52.40
1878;DHT22;939;51.426;6.972;2023-07-08T16:36:21;30.90;57.70
1878;DHT22;939;51.426;6.972;2023-07-08T16:38:49;30.80;55.00
1878;DHT22;939;51.426;6.972;2023-07-08T16:41:36;30.80;29.70
1878;DHT22;939;51.426;6.972;2023-07-08T16:44:24;30.90;43.50
1878;DHT22;939;51.426;6.972;2023-07-08T16:47:02;30.90;49.80
1878;DHT22;939;51.426;6.972;2023-07-08T16:49:32;30.90;53.70
1878;DHT22;939;51.426;6.972;2023-07-08T16:52:42;30.80;60.00
1878;DHT22;939;51.426;6.972;2023-07-08T16:55:49;30.70;64.20
1878;DHT22;939;51.426;6.972;2023-07-08T16:58:50;30.60;58.10
1878;DHT22;939;51.426;6.972;2023-07-08T17:01:29;30.40;70.80
1878;DHT22;939;51.426;6.972;2023-07-08T17:03:57;30.30;73.20
1878;DHT22;939;51.426;6.972;2023-07-08T17:06:36;30.30;81.20
1878;DHT22;939;51.426;6.972;2023-07-08T17:09:19;30.20;84.70
1878;DHT22;939;51.426;6.972;2023-07-08T17:11:56;30.20;88.10
1878;DHT22;939;51.426;6.972;2023-07-08T17:14:31;30.10;91.70
1878;DHT22;939;51.426;6.972;2023-07-08T17:17:08;30.00;88.00
1878;DHT22;939;51.426;6.972;2023-07-08T17:19:46;29.90;87.90
1878;DHT22;939;51.426;6.972;2023-07-08T17:22:13;29.80;84.30
1878;DHT22;939;51.426;6.972;2023-07-08T17:24:40;29.80;82.00
1878;DHT22;939;51.426;6.972;2023-07-08T17:27:10;29.70;83.40
1878;DHT22;939;51.426;6.972;2023-07-08T17:29:39;29.60;85.70
1878;DHT22;939;51.426;6.972;2023-07-08T17:32:23;29.60;85.50
1878;DHT22;939;51.426;6.972;2023-07-08T17:38:38;29.50;89.20
1878;DHT22;939;51.426;6.972;2023-07-08T17:41:55;29.40;91.80
1878;DHT22;939;51.426;6.972;2023-07-08T17:55:34;29.10;99.90
1878;DHT22;939;51.426;6.972;2023-07-08T17:58:49;29.10;99.90
1878;DHT22;939;51.426;6.972;2023-07-08T18:02:23;29.00;99.90
1878;DHT22;939;51.426;6.972;2023-07-08T18:05:07;28.90;99.90
1878;DHT22;939;51.426;6.972;2023-07-08T18:07:45;28.90;99.90
1878;DHT22;939;51.426;6.972;2023-07-08T18:13:52;28.80;99.90
1878;DHT22;939;51.426;6.972;2023-07-08T18:16:44;28.70;99.90
1878;DHT22;939;51.426;6.972;2023-07-08T18:24:16;28.50;99.90
1878;DHT22;939;51.426;6.972;2023-07-08T18:29:37;28.30;99.70
1878;DHT22;939;51.426;6.972;2023-07-08T18:32:47;28.30;98.40
1878;DHT22;939;51.426;6.972;2023-07-08T18:36:14;28.20;98.30
1878;DHT22;939;51.426;6.972;2023-07-08T18:43:47;28.00;97.70
1878;DHT22;939;51.426;6.972;2023-07-08T18:46:42;27.90;97.90
1878;DHT22;939;51.426;6.972;2023-07-08T18:49:21;27.80;99.20
1878;DHT22;939;51.426;6.972;2023-07-08T18:51:54;27.60;99.10
1878;DHT22;939;51.426;6.972;2023-07-08T18:54:24;27.50;99.50
1878;DHT22;939;51.426;6.972;2023-07-08T18:56:55;27.40;97.10
1878;DHT22;939;51.426;6.972;2023-07-08T18:59:36;27.30;97.40
1878;DHT22;939;51.426;6.972;2023-07-08T19:02:30;27.40;98.50
1878;DHT22;939;51.426;6.972;2023-07-08T19:05:40;27.30;98.80
1878;DHT22;939;51.426;6.972;2023-07-08T19:08:15;27.30;98.70
1878;DHT22;939;51.426;6.972;2023-07-08T19:11:01;27.30;99.70
1878;DHT22;939;51.426;6.972;2023-07-08T19:13:30;27.20;99.80
1878;DHT22;939;51.426;6.972;2023-07-08T19:16:02;27.20;99.30
1878;DHT22;939;51.426;6.972;2023-07-08T19:18:36;27.20;98.90
1878;DHT22;939;51.426;6.972;2023-07-08T19:21:24;27.10;97.90
1878;DHT22;939;51.426;6.972;2023-07-08T19:23:55;26.90;95.60
1878;DHT22;939;51.426;6.972;2023-07-08T19:26:26;27.00;90.10
1878;DHT22;939;51.426;6.972;2023-07-08T19:29:05;27.10;91.00
1878;DHT22;939;51.426;6.972;2023-07-08T19:31:43;27.10;92.10
1878;DHT22;939;51.426;6.972;2023-07-08T19:34:34;27.20;92.60
1878;DHT22;939;51.426;6.972;2023-07-08T19:37:20;27.20;90.70
1878;DHT22;939;51.426;6.972;2023-07-08T19:39:50;27.30;91.80
1878;DHT22;939;51.426;6.972;2023-07-08T19:42:41;27.30;92.90
1878;DHT22;939;51.426;6.972;2023-07-08T19:45:27;27.30;94.30
1878;DHT22;939;51.426;6.972;2023-07-08T19:48:12;27.20;95.10
1878;DHT22;939;51.426;6.972;2023-07-08T19:54:18;27.10;96.70
1878;DHT22;939;51.426;6.972;2023-07-08T19:57:17;27.00;97.10
1878;DHT22;939;51.426;6.972;2023-07-08T19:59:47;27.00;98.00
1878;DHT22;939;51.426;6.972;2023-07-08T20:02:21;26.80;98.70
1878;DHT22;939;51.426;6.972;2023-07-08T20:04:51;26.70;99.00
1878;DHT22;939;51.426;6.972;2023-07-08T20:07:20;26.60;98.60
1878;DHT22;939;51.426;6.972;2023-07-08T20:09:54;26.60;98.30
1878;DHT22;939;51.426;6.972;2023-07-08T20:12:25;26.50;98.50
1878;DHT22;939;51.426;6.972;2023-07-08T20:14:52;26.40;97.10
1878;DHT22;939;51.426;6.972;2023-07-08T20:17:24;26.40;97.30
1878;DHT22;939;51.426;6.972;2023-07-08T20:19:52;26.30;98.10
1878;DHT22;939;51.426;6.972;2023-07-08T20:22:20;26.20;98.50
1878;DHT22;939;51.426;6.972;2023-07-08T20:24:49;26.10;98.20
1878;DHT22;939;51.426;6.972;2023-07-08T20:27:24;26.10;97.80
1878;DHT22;939;51.426;6.972;2023-07-08T20:29:53;26.00;98.70
1878;DHT22;939;51.426;6.972;2023-07-08T20:32:20;25.90;99.90
1878;DHT22;939;51.426;6.972;2023-07-08T20:34:49;25.90;99.50
1878;DHT22;939;51.426;6.972;2023-07-08T20:37:17;25.80;99.70
1878;DHT22;939;51.426;6.972;2023-07-08T20:39:46;25.80;99.90
1878;DHT22;939;51.426;6.972;2023-07-08T20:42:13;25.70;99.90
1878;DHT22;939;51.426;6.972;2023-07-08T20:44:42;25.70;99.90
1878;DHT22;939;51.426;6.972;2023-07-08T20:47:13;25.60;99.90
1878;DHT22;939;51.426;6.972;2023-07-08T20:49:41;25.50;99.90
1878;DHT22;939;51.426;6.972;2023-07-08T20:52:10;25.40;99.90
1878;DHT22;939;51.426;6.972;2023-07-08T20:54:39;25.40;99.90
1878;DHT22;939;51.426;6.972;2023-07-08T20:57:10;25.40;99.90
1878;DHT22;939;51.426;6.972;2023-07-08T20:59:38;25.30;99.90
1878;DHT22;939;51.426;6.972;2023-07-08T21:02:20;25.30;99.90
1878;DHT22;939;51.426;6.972;2023-07-08T21:04:49;25.20;99.90
1878;DHT22;939;51.426;6.972;2023-07-08T21:07:16;25.20;99.90
1878;DHT22;939;51.426;6.972;2023-07-08T21:09:43;25.20;99.00
1878;DHT22;939;51.426;6.972;2023-07-08T21:12:12;25.20;99.40
1878;DHT22;939;51.426;6.972;2023-07-08T21:14:39;25.20;99.80
1878;DHT22;939;51.426;6.972;2023-07-08T21:17:15;25.20;99.90
1878;DHT22;939;51.426;6.972;2023-07-08T21:19:43;25.10;99.90
1878;DHT22;939;51.426;6.972;2023-07-08T21:22:11;25.00;99.90
1878;DHT22;939;51.426;6.972;2023-07-08T21:24:38;25.00;99.90
1878;DHT22;939;51.426;6.972;2023-07-08T21:27:08;24.90;99.90
1878;DHT22;939;51.426;6.972;2023-07-08T21:29:42;24.90;99.40
1878;DHT22;939;51.426;6.972;2023-07-08T21:32:09;24.80;97.80
1878;DHT22;939;51.426;6.972;2023-07-08T21:34:37;24.80;97.50
1878;DHT22;939;51.426;6.972;2023-07-08T21:37:04;24.90;97.60
1878;DHT22;939;51.426;6.972;2023-07-08T21:39:33;24.90;97.90
1878;DHT22;939;51.426;6.972;2023-07-08T21:42:03;24.90;97.20
1878;DHT22;939;51.426;6.972;2023-07-08T21:44:32;24.90;96.20
1878;DHT22;939;51.426;6.972;2023-07-08T21:47:00;24.90;95.90
1878;DHT22;939;51.426;6.972;2023-07-08T21:49:27;24.90;95.70
1878;DHT22;939;51.426;6.972;2023-07-08T21:52:07;25.00;96.50
1878;DHT22;939;51.426;6.972;2023-07-08T21:54:35;25.00;96.30
1878;DHT22;939;51.426;6.972;2023-07-08T21:57:14;25.00;96.50
1878;DHT22;939;51.426;6.972;2023-07-08T21:59:46;24.90;95.40
1878;DHT22;939;51.426;6.972;2023-07-08T22:02:22;24.90;95.40
1878;DHT22;939;51.426;6.972;2023-07-08T22:04:55;25.00;95.50
1878;DHT22;939;51.426;6.972;2023-07-08T22:07:24;24.90;93.80
1878;DHT22;939;51.426;6.972;2023-07-08T22:09:56;24.90;94.70
1878;DHT22;939;51.426;6.972;2023-07-08T22:12:28;24.90;94.90
1878;DHT22;939;51.426;6.972;2023-07-08T22:15:03;24.90;95.40
1878;DHT22;939;51.426;6.972;2023-07-08T22:17:37;24.90;95.30
